createdAt,value
2022-11-18T00:00:05.046Z,99656.31
2022-11-18T00:02:33.015Z,99662.28
2022-11-18T00:05:01.328Z,99663.66
2022-11-18T00:07:29.394Z,99654.22
2022-11-18T00:09:58.783Z,99653.97
2022-11-18T00:12:43.889Z,99663.59
2022-11-18T00:15:11.824Z,99668.72
2022-11-18T00:17:39.710Z,99672.00
2022-11-18T00:20:08.398Z,99668.09
2022-11-18T00:22:36.489Z,99673.31
2022-11-18T00:25:06.320Z,99677.78
2022-11-18T00:27:34.478Z,99671.50
2022-11-18T00:30:02.743Z,99672.97
2022-11-18T00:32:30.812Z,99676.19
2022-11-18T00:34:58.702Z,99679.38
2022-11-18T00:37:26.630Z,99673.63
2022-11-18T00:39:54.720Z,99684.91
2022-11-18T00:42:41.336Z,99684.59
2022-11-18T00:45:10.047Z,99676.72
2022-11-18T00:47:37.970Z,99687.38
2022-11-18T00:50:06.750Z,99695.06
2022-11-18T00:52:34.678Z,99694.31
2022-11-18T00:55:02.560Z,99696.56
2022-11-18T00:57:31.816Z,99701.69
2022-11-18T00:59:59.726Z,99707.44
2022-11-18T01:02:27.949Z,99708.59
2022-11-18T01:04:56.166Z,99710.94
2022-11-18T01:07:24.176Z,99718.44
2022-11-18T01:09:52.179Z,99718.84
2022-11-18T01:12:37.308Z,99724.63
2022-11-18T01:15:07.591Z,99723.44
2022-11-18T01:17:35.508Z,99723.03
2022-11-18T01:20:03.523Z,99725.34
2022-11-18T01:22:31.407Z,99722.66
2022-11-18T01:24:59.742Z,99739.97
2022-11-18T01:27:27.663Z,99732.41
2022-11-18T01:29:55.560Z,99731.31
2022-11-18T01:32:25.766Z,99743.16
2022-11-18T01:34:53.851Z,99742.00
2022-11-18T01:37:21.741Z,99747.94
2022-11-18T01:39:49.646Z,99745.91
2022-11-18T01:42:20.396Z,99749.75
2022-11-18T01:45:05.242Z,99754.50
2022-11-18T01:47:37.245Z,99742.06
2022-11-18T01:50:05.878Z,99758.91
2022-11-18T01:52:34.111Z,99760.16
2022-11-18T01:55:05.283Z,99759.53
2022-11-18T01:57:33.278Z,99767.72
2022-11-18T02:00:03.761Z,99769.44
2022-11-18T02:02:32.288Z,99769.72
2022-11-18T02:05:01.651Z,99768.00
2022-11-18T02:07:29.638Z,99766.31
2022-11-18T02:09:57.616Z,99764.78
2022-11-18T02:12:25.570Z,99773.06
2022-11-18T02:14:53.556Z,99783.06
2022-11-18T02:17:30.767Z,99792.88
2022-11-18T02:20:20.089Z,99788.50
2022-11-18T02:23:14.334Z,99787.53
2022-11-18T02:25:45.441Z,99787.66
2022-11-18T02:28:22.272Z,99777.03
2022-11-18T02:30:54.200Z,99790.44
2022-11-18T02:33:24.388Z,99791.25
2022-11-18T02:35:54.667Z,99787.91
2022-11-18T02:38:24.738Z,99785.34
2022-11-18T02:40:54.913Z,99779.09
2022-11-18T02:43:24.218Z,99783.91
2022-11-18T02:45:55.464Z,99785.22
2022-11-18T02:48:23.801Z,99794.44
2022-11-18T02:50:51.822Z,99806.31
2022-11-18T02:53:21.558Z,99799.75
2022-11-18T02:55:49.476Z,99816.47
2022-11-18T02:58:18.788Z,99807.94
2022-11-18T03:00:46.725Z,99818.19
2022-11-18T03:03:29.613Z,99820.19
2022-11-18T03:06:08.452Z,99815.81
2022-11-18T03:08:38.713Z,99823.59
2022-11-18T03:11:11.380Z,99818.19
2022-11-18T03:13:44.536Z,99835.59
2022-11-18T03:16:13.497Z,99843.47
2022-11-18T03:18:45.481Z,99844.63
2022-11-18T03:21:15.544Z,99842.13
2022-11-18T03:23:44.761Z,99829.97
2022-11-18T03:26:14.112Z,99847.59
2022-11-18T03:28:43.949Z,99849.22
2022-11-18T03:31:14.612Z,99848.66
2022-11-18T03:33:44.880Z,99834.47
2022-11-18T03:36:12.868Z,99839.50
2022-11-18T03:38:42.084Z,99850.84
2022-11-18T03:41:10.717Z,99844.16
2022-11-18T03:43:40.797Z,99844.63
2022-11-18T03:46:09.542Z,99837.97
2022-11-18T03:48:39.304Z,99846.41
2022-11-18T03:51:09.795Z,99846.88
2022-11-18T03:53:39.554Z,99851.16
2022-11-18T03:56:15.799Z,99852.91
2022-11-18T03:58:49.129Z,99868.19
2022-11-18T04:01:18.421Z,99879.34
2022-11-18T04:03:46.392Z,99876.28
2022-11-18T04:06:23.417Z,99876.03
2022-11-18T04:08:51.997Z,99876.31
2022-11-18T04:11:35.453Z,99865.75
2022-11-18T04:14:03.321Z,99884.69
2022-11-18T04:16:31.228Z,99908.34
2022-11-18T04:19:04.400Z,99902.66
2022-11-18T04:21:36.624Z,99902.47
2022-11-18T04:24:05.033Z,99908.94
2022-11-18T04:26:33.016Z,99899.97
2022-11-18T04:29:00.969Z,99912.25
2022-11-18T04:31:29.007Z,99907.28
2022-11-18T04:33:56.924Z,99916.03
2022-11-18T04:36:24.850Z,99917.59
2022-11-18T04:38:54.147Z,99925.19
2022-11-18T04:41:42.066Z,99921.28
2022-11-18T04:44:13.407Z,99931.00
2022-11-18T04:46:42.550Z,99924.63
2022-11-18T04:49:10.610Z,99936.78
2022-11-18T04:51:38.642Z,99945.38
2022-11-18T04:54:08.473Z,99931.84
2022-11-18T04:56:36.498Z,99934.91
2022-11-18T04:59:04.666Z,99950.59
2022-11-18T05:01:32.745Z,99955.34
2022-11-18T05:04:01.230Z,99952.38
2022-11-18T05:06:29.203Z,99960.88
2022-11-18T05:08:58.673Z,99955.81
2022-11-18T05:11:45.342Z,99963.59
2022-11-18T05:14:13.245Z,99968.75
2022-11-18T05:16:41.130Z,99975.81
2022-11-18T05:19:09.201Z,99985.66
2022-11-18T05:21:37.510Z,99981.41
2022-11-18T05:24:06.420Z,99983.28
2022-11-18T05:26:35.837Z,99983.22
2022-11-18T05:29:03.773Z,99985.13
2022-11-18T05:31:31.736Z,99989.47
2022-11-18T05:33:59.652Z,99985.78
2022-11-18T05:36:27.874Z,100003.19
2022-11-18T05:38:55.794Z,99996.63
2022-11-18T05:41:41.092Z,100008.72
2022-11-18T05:44:10.439Z,99999.75
2022-11-18T05:46:38.446Z,100001.09
2022-11-18T05:49:06.591Z,100012.25
2022-11-18T05:51:34.566Z,100015.19
2022-11-18T05:54:04.143Z,100015.84
2022-11-18T05:56:34.697Z,100018.22
2022-11-18T05:59:02.581Z,100032.66
2022-11-18T06:01:34.340Z,100028.22
2022-11-18T06:04:02.334Z,100028.09
2022-11-18T06:06:30.335Z,100035.06
2022-11-18T06:08:59.668Z,100032.97
2022-11-18T06:11:27.819Z,100040.88
2022-11-18T06:13:57.896Z,100038.03
2022-11-18T06:16:29.159Z,100019.56
2022-11-18T06:18:58.382Z,100040.41
2022-11-18T06:21:26.379Z,100044.59
2022-11-18T06:23:54.398Z,100039.06
2022-11-18T06:26:22.386Z,100054.00
2022-11-18T06:28:50.309Z,100054.59
2022-11-18T06:31:18.485Z,100052.56
2022-11-18T06:33:46.497Z,100061.44
2022-11-18T06:36:15.776Z,100068.56
2022-11-18T06:38:43.745Z,100078.16
2022-11-18T06:41:11.657Z,100084.56
2022-11-18T06:43:39.275Z,100085.88
2022-11-18T06:46:25.122Z,100089.53
2022-11-18T06:48:53.105Z,100084.47
2022-11-18T06:51:23.502Z,100097.84
2022-11-18T06:53:51.534Z,100097.19
2022-11-18T06:56:20.157Z,100108.00
2022-11-18T06:58:48.239Z,100110.66
2022-11-18T07:01:17.133Z,100117.06
2022-11-18T07:03:45.859Z,100113.53
2022-11-18T07:06:14.599Z,100129.13
2022-11-18T07:08:44.016Z,100128.69
2022-11-18T07:11:12.766Z,100133.75
2022-11-18T07:13:43.764Z,100136.41
2022-11-18T07:16:12.963Z,100142.56
2022-11-18T07:18:41.755Z,100136.50
2022-11-18T07:21:10.692Z,100130.34
2022-11-18T07:23:38.603Z,100132.28
2022-11-18T07:26:08.350Z,100153.59
2022-11-18T07:28:36.299Z,100153.69
2022-11-18T07:31:04.755Z,100157.22
2022-11-18T07:33:32.800Z,100168.53
2022-11-18T07:36:03.918Z,100160.44
2022-11-18T07:38:31.930Z,100173.19
2022-11-18T07:41:04.970Z,100171.72
2022-11-18T07:43:35.037Z,100182.53
2022-11-18T07:46:13.538Z,100180.75
2022-11-18T07:48:41.754Z,100193.38
2022-11-18T07:51:09.773Z,100183.50
2022-11-18T07:53:38.055Z,100194.75
2022-11-18T07:56:06.735Z,100198.09
2022-11-18T07:58:36.216Z,100199.63
2022-11-18T08:01:08.718Z,100204.78
2022-11-18T08:03:36.744Z,100205.41
2022-11-18T08:06:05.054Z,100212.16
2022-11-18T08:08:32.995Z,100216.28
2022-11-18T08:11:02.017Z,100216.09
2022-11-18T08:13:30.063Z,100227.50
2022-11-18T08:15:59.575Z,100221.16
2022-11-18T08:18:28.850Z,100229.56
2022-11-18T08:20:56.831Z,100229.31
2022-11-18T08:23:28.710Z,100236.16
2022-11-18T08:26:03.301Z,100242.25
2022-11-18T08:28:31.499Z,100248.34
2022-11-18T08:31:00.936Z,100255.22
2022-11-18T08:33:29.230Z,100251.38
2022-11-18T08:35:57.193Z,100252.06
2022-11-18T08:38:25.179Z,100257.97
2022-11-18T08:40:53.089Z,100259.59
2022-11-18T08:43:22.038Z,100260.38
2022-11-18T08:45:50.211Z,100270.00
2022-11-18T08:48:19.603Z,100262.50
2022-11-18T08:50:47.706Z,100262.13
2022-11-18T08:53:16.491Z,100277.38
2022-11-18T08:55:44.476Z,100291.22
2022-11-18T08:58:12.392Z,100287.47
2022-11-18T09:00:40.338Z,100283.13
2022-11-18T09:03:08.284Z,100303.75
2022-11-18T09:05:37.695Z,100306.53
2022-11-18T09:08:06.244Z,100301.03
2022-11-18T09:10:34.560Z,100305.88
2022-11-18T09:13:18.413Z,100310.19
2022-11-18T09:15:50.792Z,100312.94
2022-11-18T09:18:18.822Z,100307.88
2022-11-18T09:20:56.754Z,100318.56
2022-11-18T09:23:24.720Z,100311.69
2022-11-18T09:25:59.010Z,100319.44
2022-11-18T09:28:28.038Z,100324.38
2022-11-18T09:30:56.004Z,100327.53
2022-11-18T09:33:24.058Z,100334.41
2022-11-18T09:35:51.935Z,100334.13
2022-11-18T09:38:21.441Z,100343.47
2022-11-18T09:40:54.065Z,100341.13
2022-11-18T09:43:23.854Z,100347.88
2022-11-18T09:45:54.723Z,100350.25
2022-11-18T09:48:43.042Z,100354.28
2022-11-18T09:51:11.114Z,100370.03
2022-11-18T09:53:40.869Z,100362.63
2022-11-18T09:56:12.227Z,100368.44
2022-11-18T09:58:40.598Z,100382.28
2022-11-18T10:01:11.860Z,100375.59
2022-11-18T10:03:39.988Z,100384.16
2022-11-18T10:06:19.256Z,100382.56
2022-11-18T10:09:01.032Z,100394.09
2022-11-18T10:11:36.106Z,100393.44
2022-11-18T10:14:15.966Z,100397.16
2022-11-18T10:16:50.869Z,100407.94
2022-11-18T10:19:26.870Z,100396.56
2022-11-18T10:22:19.469Z,100406.22
2022-11-18T10:24:53.555Z,100410.88
2022-11-18T10:27:21.841Z,100414.50
2022-11-18T10:29:57.053Z,100407.75
2022-11-18T10:32:25.151Z,100425.38
2022-11-18T10:34:54.212Z,100433.69
2022-11-18T10:37:39.058Z,100415.09
2022-11-18T10:40:25.194Z,100434.47
2022-11-18T10:42:53.160Z,100437.31
2022-11-18T10:45:26.192Z,100437.44
2022-11-18T10:48:08.396Z,100445.72
2022-11-18T10:50:37.250Z,100452.09
2022-11-18T10:53:05.726Z,100442.34
2022-11-18T10:55:35.177Z,100446.38
2022-11-18T10:58:04.772Z,100452.78
2022-11-18T11:00:47.064Z,100450.56
2022-11-18T11:03:42.147Z,100452.66
2022-11-18T11:06:33.254Z,100448.09
2022-11-18T11:09:02.965Z,100453.94
2022-11-18T11:11:33.067Z,100459.72
2022-11-18T11:14:08.542Z,100461.88
2022-11-18T11:16:40.078Z,100466.13
2022-11-18T11:19:08.572Z,100472.53
2022-11-18T11:21:36.481Z,100470.34
2022-11-18T11:24:06.790Z,100478.94
2022-11-18T11:29:35.174Z,100485.16
2022-11-18T11:32:06.754Z,100483.38
2022-11-18T11:34:38.073Z,100476.75
2022-11-18T11:37:10.952Z,100480.69
2022-11-18T11:39:45.666Z,100474.59
2022-11-18T11:42:19.869Z,100491.28
2022-11-18T11:44:55.026Z,100495.53
2022-11-18T11:47:44.636Z,100498.03
2022-11-18T11:50:14.960Z,100505.09
2022-11-18T11:52:47.397Z,100507.41
2022-11-18T11:55:19.401Z,100505.88
2022-11-18T11:58:00.481Z,100503.22
2022-11-18T12:00:28.936Z,100506.50
2022-11-18T12:03:08.671Z,100507.25
2022-11-18T12:05:39.230Z,100498.63
2022-11-18T12:08:09.686Z,100510.69
2022-11-18T12:10:43.235Z,100506.31
2022-11-18T12:13:19.231Z,100513.16
2022-11-18T12:15:53.164Z,100512.75
2022-11-18T12:18:22.425Z,100508.72
2022-11-18T12:20:50.986Z,100506.75
2022-11-18T12:23:21.522Z,100513.16
2022-11-18T12:25:57.377Z,100512.81
2022-11-18T12:28:29.323Z,100517.22
2022-11-18T12:31:42.926Z,100512.38
2022-11-18T12:34:27.897Z,100520.59
2022-11-18T12:36:55.901Z,100516.84
2022-11-18T12:39:50.983Z,100521.53
2022-11-18T12:42:54.050Z,100530.41
2022-11-18T12:45:53.590Z,100521.09
2022-11-18T12:48:35.510Z,100532.50
2022-11-18T12:51:04.257Z,100532.75
2022-11-18T12:53:34.470Z,100528.94
2022-11-18T12:56:02.435Z,100535.97
2022-11-18T12:58:30.335Z,100532.13
2022-11-18T13:01:18.393Z,100543.34
2022-11-18T13:03:46.424Z,100548.31
2022-11-18T13:06:20.229Z,100548.63
2022-11-18T13:08:51.907Z,100544.50
2022-11-18T13:11:37.463Z,100540.13
2022-11-18T13:14:23.635Z,100546.16
2022-11-18T13:17:10.386Z,100546.34
2022-11-18T13:19:38.283Z,100535.81
2022-11-18T13:22:34.947Z,100543.19
2022-11-18T13:25:02.846Z,100547.97
2022-11-18T13:27:38.170Z,100551.25
2022-11-18T13:30:08.464Z,100559.44
2022-11-18T13:32:37.705Z,100549.38
2022-11-18T13:35:11.976Z,100566.38
2022-11-18T13:37:48.621Z,100566.69
2022-11-18T13:40:20.003Z,100573.41
2022-11-18T13:42:48.521Z,100566.38
2022-11-18T13:45:16.416Z,100566.25
2022-11-18T13:47:47.434Z,100573.78
2022-11-18T13:50:18.540Z,100582.69
2022-11-18T13:52:48.801Z,100584.81
2022-11-18T13:55:20.056Z,100583.97
2022-11-18T13:57:49.249Z,100582.22
2022-11-18T14:00:24.469Z,100588.78
2022-11-18T14:02:57.737Z,100579.34
2022-11-18T14:05:25.599Z,100587.78
2022-11-18T14:08:02.802Z,100590.56
2022-11-18T14:10:36.629Z,100596.34
2022-11-18T14:13:17.677Z,100589.41
2022-11-18T14:15:45.611Z,100596.78
2022-11-18T14:18:20.978Z,100601.09
2022-11-18T14:20:52.604Z,100596.81
2022-11-18T14:23:20.743Z,100597.44
2022-11-18T14:25:48.625Z,100599.44
2022-11-18T14:28:21.798Z,100596.97
2022-11-18T14:31:03.899Z,100595.22
2022-11-18T14:33:33.486Z,100598.28
2022-11-18T14:36:02.209Z,100606.16
2022-11-18T14:41:44.394Z,100608.53
2022-11-18T14:44:13.855Z,100611.75
2022-11-18T14:46:42.501Z,100615.28
2022-11-18T14:49:14.751Z,100615.69
2022-11-18T14:51:42.640Z,100624.31
2022-11-18T14:54:14.011Z,100631.63
2022-11-18T14:56:41.975Z,100629.16
2022-11-18T14:59:15.058Z,100630.91
2022-11-18T15:01:43.187Z,100639.78
2022-11-18T15:04:12.603Z,100633.56
2022-11-18T15:06:40.548Z,100645.31
2022-11-18T15:09:08.871Z,100649.25
2022-11-18T15:11:36.833Z,100649.91
2022-11-18T15:14:05.051Z,100652.63
2022-11-18T15:16:33.796Z,100658.84
2022-11-18T15:19:02.619Z,100661.38
2022-11-18T15:21:32.034Z,100670.97
2022-11-18T15:23:59.946Z,100660.84
2022-11-18T15:26:29.810Z,100672.06
2022-11-18T15:28:58.550Z,100672.63
2022-11-18T15:31:26.644Z,100672.19
2022-11-18T15:33:54.589Z,100680.56
2022-11-18T15:36:23.138Z,100681.06
2022-11-18T15:38:52.611Z,100678.81
2022-11-18T15:41:21.576Z,100686.22
2022-11-18T15:43:49.671Z,100693.63
2022-11-18T15:46:19.336Z,100684.84
2022-11-18T15:48:47.286Z,100685.97
2022-11-18T15:51:15.211Z,100691.66
2022-11-18T15:53:43.087Z,100687.75
2022-11-18T15:56:31.562Z,100700.25
2022-11-18T15:59:00.292Z,100705.16
2022-11-18T16:01:29.368Z,100701.00
2022-11-18T16:03:57.400Z,100700.66
2022-11-18T16:06:25.743Z,100707.69
2022-11-18T16:08:59.243Z,100716.72
2022-11-18T16:11:46.681Z,100726.69
2022-11-18T16:14:15.074Z,100726.16
2022-11-18T16:16:43.590Z,100732.53
2022-11-18T16:19:12.409Z,100727.59
2022-11-18T16:21:41.250Z,100735.59
2022-11-18T16:24:10.117Z,100745.66
2022-11-18T16:26:39.389Z,100747.69
2022-11-18T16:29:07.530Z,100751.53
2022-11-18T16:31:41.786Z,100763.38
2022-11-18T16:34:09.824Z,100762.75
2022-11-18T16:36:38.250Z,100761.28
2022-11-18T16:39:08.140Z,100769.28
2022-11-18T16:41:36.359Z,100761.47
2022-11-18T16:44:06.843Z,100765.00
2022-11-18T16:46:35.460Z,100768.59
2022-11-18T16:49:04.334Z,100774.03
2022-11-18T16:51:32.906Z,100775.81
2022-11-18T16:54:01.614Z,100786.38
2022-11-18T16:56:30.191Z,100776.59
2022-11-18T16:58:58.819Z,100785.53
2022-11-18T17:01:29.907Z,100791.91
2022-11-18T17:03:59.968Z,100793.84
2022-11-18T17:06:27.932Z,100792.19
2022-11-18T17:08:56.098Z,100793.28
2022-11-18T17:11:24.019Z,100788.97
2022-11-18T17:13:56.406Z,100794.38
2022-11-18T17:16:27.121Z,100800.63
2022-11-18T17:18:55.699Z,100803.38
2022-11-18T17:21:23.625Z,100806.75
2022-11-18T17:23:51.819Z,100808.56
2022-11-18T17:26:20.825Z,100813.81
2022-11-18T17:28:48.875Z,100813.91
2022-11-18T17:31:17.745Z,100812.94
2022-11-18T17:33:48.241Z,100821.91
2022-11-18T17:36:17.062Z,100828.16
2022-11-18T17:38:46.694Z,100830.09
2022-11-18T17:41:36.003Z,100838.16
2022-11-18T17:44:05.166Z,100836.75
2022-11-18T17:46:37.820Z,100839.47
2022-11-18T17:49:09.109Z,100846.69
2022-11-18T17:51:37.029Z,100854.88
2022-11-18T17:54:05.128Z,100856.91
2022-11-18T17:56:33.145Z,100845.88
2022-11-18T17:59:01.246Z,100855.53
2022-11-18T18:01:29.593Z,100858.38
2022-11-18T18:03:57.635Z,100865.47
2022-11-18T18:06:26.901Z,100867.41
2022-11-18T18:08:57.217Z,100866.69
2022-11-18T18:11:25.172Z,100873.97
2022-11-18T18:14:10.780Z,100884.63
2022-11-18T18:16:38.687Z,100882.22
2022-11-18T18:19:07.493Z,100880.84
2022-11-18T18:21:36.838Z,100889.91
2022-11-18T18:24:05.469Z,100890.84
2022-11-18T18:26:33.441Z,100900.66
2022-11-18T18:29:01.519Z,100902.66
2022-11-18T18:31:29.488Z,100917.81
2022-11-18T18:33:57.430Z,100918.75
2022-11-18T18:36:25.932Z,100925.00
2022-11-18T18:38:55.197Z,100918.03
2022-11-18T18:41:23.444Z,100928.59
2022-11-18T18:43:51.357Z,100924.22
2022-11-18T18:46:32.345Z,100929.53
2022-11-18T18:49:02.904Z,100929.88
2022-11-18T18:51:33.929Z,100937.78
2022-11-18T18:54:03.219Z,100932.59
2022-11-18T18:56:31.588Z,100944.03
2022-11-18T18:58:59.572Z,100943.25
2022-11-18T19:01:28.060Z,100954.88
2022-11-18T19:03:56.753Z,100948.88
2022-11-18T19:06:53.218Z,100965.81
2022-11-18T19:09:16.069Z,100955.34
2022-11-18T19:12:01.926Z,100959.91
2022-11-18T19:14:29.996Z,100943.59
2022-11-18T19:16:57.953Z,100975.06
2022-11-18T19:19:40.553Z,100979.56
2022-11-18T19:22:08.783Z,100977.03
2022-11-18T19:24:54.217Z,100986.06
2022-11-18T19:27:22.797Z,100977.31
2022-11-18T19:29:50.707Z,100982.69
2022-11-18T19:32:19.021Z,100981.94
2022-11-18T19:34:46.942Z,100982.09
2022-11-18T19:37:14.849Z,100988.38
2022-11-18T19:39:44.227Z,100998.16
2022-11-18T19:42:12.262Z,101011.44
2022-11-18T19:44:40.122Z,101010.66
2022-11-18T19:47:07.974Z,101006.22
2022-11-18T19:49:35.890Z,101016.84
2022-11-18T19:52:03.795Z,101022.09
2022-11-18T19:54:34.828Z,101022.03
2022-11-18T19:57:04.263Z,101022.09
2022-11-18T19:59:32.127Z,101025.69
2022-11-18T20:02:00.096Z,101024.81
2022-11-18T20:04:28.206Z,101035.50
2022-11-18T20:06:56.787Z,101041.66
2022-11-18T20:09:25.379Z,101039.03
2022-11-18T20:11:53.494Z,101049.66
2022-11-18T20:14:22.906Z,101053.31
2022-11-18T20:16:51.957Z,101057.84
2022-11-18T20:19:20.184Z,101059.69
2022-11-18T20:21:49.606Z,101069.44
2022-11-18T20:24:18.531Z,101073.06
2022-11-18T20:26:46.852Z,101064.56
2022-11-18T20:29:14.728Z,101075.91
2022-11-18T20:31:44.160Z,101075.97
2022-11-18T20:34:12.761Z,101077.81
2022-11-18T20:36:40.842Z,101085.97
2022-11-18T20:39:09.609Z,101093.00
2022-11-18T20:41:37.493Z,101093.97
2022-11-18T20:44:06.039Z,101096.72
2022-11-18T20:46:34.494Z,101091.56
2022-11-18T20:49:04.210Z,101095.09
2022-11-18T20:51:32.120Z,101096.09
2022-11-18T20:54:00.721Z,101106.72
2022-11-18T20:56:28.797Z,101107.59
2022-11-18T20:58:58.233Z,101114.69
2022-11-18T21:01:27.125Z,101121.84
2022-11-18T21:03:55.797Z,101124.72
2022-11-18T21:06:26.330Z,101117.00
2022-11-18T21:08:55.831Z,101121.78
2022-11-18T21:11:23.782Z,101124.97
2022-11-18T21:14:09.100Z,101123.75
2022-11-18T21:16:37.085Z,101128.66
2022-11-18T21:19:05.523Z,101124.75
2022-11-18T21:21:45.675Z,101135.56
2022-11-18T21:24:14.093Z,101139.50
2022-11-18T21:26:42.384Z,101142.47
2022-11-18T21:29:11.645Z,101135.75
2022-11-18T21:31:39.764Z,101140.47
2022-11-18T21:34:07.803Z,101143.44
2022-11-18T21:36:41.442Z,101153.41
2022-11-18T21:39:15.289Z,101158.06
2022-11-18T21:41:43.405Z,101157.22
2022-11-18T21:44:12.055Z,101155.53
2022-11-18T21:46:40.622Z,101155.34
2022-11-18T21:49:09.083Z,101159.69
2022-11-18T21:51:38.714Z,101165.72
2022-11-18T21:54:07.393Z,101165.53
2022-11-18T21:56:35.680Z,101165.22
2022-11-18T21:59:04.076Z,101169.38
2022-11-18T22:01:35.125Z,101171.94
2022-11-18T22:04:04.225Z,101177.91
2022-11-18T22:06:33.654Z,101175.13
2022-11-18T22:09:03.751Z,101163.56
2022-11-18T22:11:31.733Z,101173.94
2022-11-18T22:13:59.950Z,101170.63
2022-11-18T22:16:28.176Z,101181.25
2022-11-18T22:19:00.270Z,101175.19
2022-11-18T22:21:30.403Z,101186.84
2022-11-18T22:23:59.172Z,101193.84
2022-11-18T22:26:28.822Z,101201.75
2022-11-18T22:28:58.632Z,101200.03
2022-11-18T22:31:28.211Z,101195.72
2022-11-18T22:33:56.546Z,101197.81
2022-11-18T22:36:25.981Z,101206.09
2022-11-18T22:38:54.139Z,101210.72
2022-11-18T22:41:40.079Z,101217.22
2022-11-18T22:44:09.659Z,101213.25
2022-11-18T22:46:37.854Z,101216.97
2022-11-18T22:49:05.853Z,101220.72
2022-11-18T22:51:33.701Z,101222.59
2022-11-18T22:54:37.597Z,101214.84
2022-11-18T22:56:49.483Z,101223.94
2022-11-18T22:59:19.191Z,101222.28
2022-11-18T23:01:47.175Z,101227.72
2022-11-18T23:04:15.113Z,101226.13
2022-11-18T23:06:43.007Z,101233.38
2022-11-18T23:09:10.856Z,101239.69
2022-11-18T23:11:56.373Z,101233.78
2022-11-18T23:14:25.615Z,101241.00
2022-11-18T23:16:53.689Z,101242.06
2022-11-18T23:19:22.003Z,101247.47
2022-11-18T23:21:50.125Z,101247.34
2022-11-18T23:24:18.884Z,101251.72
2022-11-18T23:26:46.826Z,101247.25
2022-11-18T23:29:15.102Z,101257.72
2022-11-18T23:31:45.062Z,101253.19
2022-11-18T23:34:13.344Z,101264.59
2022-11-18T23:36:41.295Z,101274.28
2022-11-18T23:39:09.411Z,101270.84
2022-11-18T23:41:37.422Z,101276.31
2022-11-18T23:44:05.655Z,101274.72
2022-11-18T23:46:33.543Z,101278.44
2022-11-18T23:49:02.823Z,101285.59
2022-11-18T23:51:30.791Z,101292.75
2022-11-18T23:53:58.639Z,101293.78
2022-11-18T23:56:27.613Z,101294.75
2022-11-18T23:58:56.947Z,101296.59
